Time;durP1;ratioP1;P1;durP2;ratioP2;P2;SDS_P1;SDS_P2;PMS_P1;PMS_P2;Temp;Humidity;BMP_temperature;BMP_pressure;BME280_temperature;BME280_humidity;BME280_pressure;Samples;Min_cycle;Max_cycle;Signal;HPM_P1;HPM_P2
2022/07/23 00:00:00;;;;;;;5.15;3.30;;;;;;;;;;5042184;28;20420;-79
2022/07/23 00:02:26;;;;;;;4.65;3.42;;;;;;;;;;5046304;28;20411;-79
2022/07/23 00:04:53;;;;;;;5.07;3.00;;;;;;;;;;5042910;28;20765;-79
2022/07/23 00:07:19;;;;;;;3.72;2.85;;;;;;;;;;5044082;28;21203;-83
2022/07/23 00:09:46;;;;;;;4.25;2.92;;;;;;;;;;5042449;28;20424;-80
2022/07/23 00:12:12;;;;;;;4.43;3.38;;;;;;;;;;5041890;28;20431;-79
2022/07/23 00:14:39;;;;;;;6.10;3.45;;;;;;;;;;5042445;28;20427;-79
2022/07/23 00:17:06;;;;;;;4.70;3.00;;;;;;;;;;5041086;28;20433;-80
2022/07/23 00:19:34;;;;;;;5.63;3.40;;;;;;;;;;5042800;28;20418;-78
2022/07/23 00:22:00;;;;;;;8.70;4.05;;;;;;;;;;5041762;28;20425;-79
2022/07/23 00:24:28;;;;;;;6.50;3.83;;;;;;;;;;5040173;28;20918;-79
2022/07/23 00:26:55;;;;;;;8.65;3.58;;;;;;;;;;5040064;28;20524;-79
2022/07/23 00:29:21;;;;;;;6.13;3.45;;;;;;;;;;5041216;28;20409;-79
2022/07/23 00:31:47;;;;;;;5.75;3.25;;;;;;;;;;5042703;28;20424;-79
2022/07/23 00:34:15;;;;;;;8.27;3.38;;;;;;;;;;5042348;28;20429;-78
2022/07/23 00:36:42;;;;;;;8.50;3.50;;;;;;;;;;5040746;28;20425;-79
2022/07/23 00:39:08;;;;;;;5.95;3.75;;;;;;;;;;5023622;28;20437;-80
2022/07/23 00:41:34;;;;;;;7.03;3.55;;;;;;;;;;5042755;28;21023;-79
2022/07/23 00:44:14;;;;;;;3.90;2.70;;;;;;;;;;5041939;28;20511;-79
2022/07/23 00:46:45;;;;;;;3.90;3.30;;;;;;;;;;5041898;28;21028;-81
2022/07/23 00:49:11;;;;;;;4.18;3.78;;;;;;;;;;5039880;28;20446;-78
2022/07/23 00:51:39;;;;;;;5.72;3.70;;;;;;;;;;5042526;28;20438;-78
2022/07/23 00:54:06;;;;;;;5.55;4.00;;;;;;;;;;5042976;28;20435;-78
2022/07/23 00:56:33;;;;;;;6.30;3.70;;;;;;;;;;5025003;28;20443;-79
2022/07/23 00:59:00;;;;;;;4.63;3.70;;;;;;;;;;5040456;28;20925;-79
2022/07/23 01:01:27;;;;;;;5.00;4.10;;;;;;;;;;5042709;28;20434;-80
2022/07/23 01:03:53;;;;;;;8.85;4.13;;;;;;;;;;5043298;28;20495;-79
2022/07/23 01:06:19;;;;;;;5.60;3.78;;;;;;;;;;5044584;28;20422;-79
2022/07/23 01:08:47;;;;;;;8.37;4.37;;;;;;;;;;5045739;28;20437;-80
2022/07/23 01:11:14;;;;;;;7.10;4.95;;;;;;;;;;5046536;28;20514;-79
2022/07/23 01:13:41;;;;;;;5.60;4.30;;;;;;;;;;5045506;28;20517;-80
2022/07/23 01:16:08;;;;;;;5.20;4.65;;;;;;;;;;5044803;28;20801;-79
2022/07/23 01:18:34;;;;;;;6.50;4.45;;;;;;;;;;5045668;28;20845;-81
2022/07/23 01:21:01;;;;;;;6.32;4.07;;;;;;;;;;5043845;28;20527;-79
2022/07/23 01:23:28;;;;;;;5.80;4.80;;;;;;;;;;5047048;28;20431;-79
2022/07/23 01:25:56;;;;;;;8.13;5.07;;;;;;;;;;5043675;28;20903;-79
2022/07/23 01:28:22;;;;;;;6.82;5.32;;;;;;;;;;5043475;28;20946;-78
2022/07/23 01:30:48;;;;;;;5.40;4.40;;;;;;;;;;5045009;28;20437;-79
2022/07/23 01:33:15;;;;;;;5.30;4.70;;;;;;;;;;5047287;28;20425;-78
2022/07/23 01:35:42;;;;;;;7.65;4.50;;;;;;;;;;5046171;28;20800;-79
2022/07/23 01:38:09;;;;;;;6.88;4.90;;;;;;;;;;5046361;28;20460;-79
2022/07/23 01:40:36;;;;;;;7.18;5.40;;;;;;;;;;5047155;28;20794;-79
2022/07/23 01:43:03;;;;;;;6.78;5.20;;;;;;;;;;5044090;28;20441;-82
2022/07/23 01:45:29;;;;;;;5.65;4.50;;;;;;;;;;5045362;28;20442;-79
2022/07/23 01:47:55;;;;;;;7.95;4.90;;;;;;;;;;5024449;28;20440;-79
2022/07/23 01:50:22;;;;;;;6.50;5.20;;;;;;;;;;5043446;28;20723;-79
2022/07/23 01:52:48;;;;;;;9.20;5.20;;;;;;;;;;5046914;28;20429;-80
2022/07/23 01:55:15;;;;;;;7.05;5.22;;;;;;;;;;5043434;28;20438;-81
2022/07/23 01:57:42;;;;;;;8.48;5.85;;;;;;;;;;5046130;28;20431;-79
2022/07/23 02:00:09;;;;;;;6.10;4.88;;;;;;;;;;5042208;28;20427;-81
2022/07/23 02:02:35;;;;;;;6.30;5.40;;;;;;;;;;5046030;28;20436;-78
2022/07/23 02:05:02;;;;;;;6.90;5.40;;;;;;;;;;5042096;28;20428;-79
2022/07/23 02:07:28;;;;;;;7.60;5.18;;;;;;;;;;5043485;28;20897;-79
2022/07/23 02:09:55;;;;;;;7.53;5.40;;;;;;;;;;5042225;28;20917;-80
2022/07/23 02:12:21;;;;;;;5.70;4.97;;;;;;;;;;5041709;28;20429;-79
2022/07/23 02:14:49;;;;;;;7.13;5.50;;;;;;;;;;5039721;28;20917;-79
2022/07/23 02:17:15;;;;;;;9.27;5.45;;;;;;;;;;5037023;28;20426;-85
2022/07/23 02:19:41;;;;;;;6.13;5.22;;;;;;;;;;5042343;28;20424;-79
2022/07/23 02:22:08;;;;;;;7.57;5.28;;;;;;;;;;5045508;28;20423;-78
2022/07/23 02:24:34;;;;;;;9.63;5.00;;;;;;;;;;5041869;28;20418;-81
2022/07/23 02:27:00;;;;;;;6.07;4.72;;;;;;;;;;5027467;28;20936;-78
2022/07/23 02:29:27;;;;;;;7.10;4.55;;;;;;;;;;5045330;28;20469;-78
2022/07/23 02:31:55;;;;;;;9.20;5.40;;;;;;;;;;5045035;28;20946;-80
2022/07/23 02:34:21;;;;;;;6.40;5.15;;;;;;;;;;5042832;28;20401;-79
2022/07/23 02:36:48;;;;;;;7.23;5.00;;;;;;;;;;5043312;28;20430;-79
2022/07/23 02:39:14;;;;;;;5.47;4.97;;;;;;;;;;5041945;28;20427;-82
2022/07/23 02:41:40;;;;;;;6.45;5.32;;;;;;;;;;5027433;28;20433;-79
2022/07/23 02:44:08;;;;;;;8.20;5.10;;;;;;;;;;5042885;28;20430;-78
2022/07/23 02:46:35;;;;;;;8.80;5.57;;;;;;;;;;5042911;28;20476;-78
2022/07/23 02:49:04;;;;;;;6.95;5.50;;;;;;;;;;5043459;28;20434;-79
2022/07/23 02:51:30;;;;;;;8.05;5.18;;;;;;;;;;5042968;28;20429;-79
2022/07/23 02:53:57;;;;;;;7.18;5.07;;;;;;;;;;5044782;28;20465;-79
2022/07/23 02:56:23;;;;;;;7.82;5.40;;;;;;;;;;5044694;28;20417;-79
2022/07/23 02:58:50;;;;;;;8.90;5.50;;;;;;;;;;5045201;28;20445;-80
2022/07/23 03:01:16;;;;;;;8.60;5.95;;;;;;;;;;5042494;28;20427;-81
2022/07/23 03:03:43;;;;;;;6.00;5.40;;;;;;;;;;5046258;28;20443;-80
2022/07/23 03:06:10;;;;;;;8.55;6.32;;;;;;;;;;5040088;28;20418;-79
2022/07/23 03:08:37;;;;;;;8.93;6.65;;;;;;;;;;5044940;28;20481;-79
2022/07/23 03:11:03;;;;;;;9.52;6.80;;;;;;;;;;5043155;28;20783;-80
2022/07/23 03:13:29;;;;;;;7.95;6.43;;;;;;;;;;5044663;28;20436;-79
2022/07/23 03:15:56;;;;;;;9.52;6.45;;;;;;;;;;5032790;28;20436;-80
2022/07/23 03:18:22;;;;;;;10.60;7.55;;;;;;;;;;5045248;28;20785;-79
2022/07/23 03:20:48;;;;;;;9.00;6.38;;;;;;;;;;5032684;28;20425;-81
2022/07/23 03:23:16;;;;;;;10.60;6.87;;;;;;;;;;5042969;28;20903;-81
2022/07/23 03:25:43;;;;;;;10.48;7.63;;;;;;;;;;5044203;28;20427;-80
2022/07/23 03:28:09;;;;;;;9.70;6.70;;;;;;;;;;5042516;28;20433;-83
2022/07/23 03:30:36;;;;;;;7.95;6.65;;;;;;;;;;5042871;28;20429;-78
2022/07/23 03:33:02;;;;;;;8.98;6.60;;;;;;;;;;5047326;28;20453;-78
2022/07/23 03:35:29;;;;;;;11.17;6.60;;;;;;;;;;5040620;28;20503;-83
2022/07/23 03:37:55;;;;;;;7.78;6.30;;;;;;;;;;5042805;28;20435;-80
2022/07/23 03:40:23;;;;;;;8.82;6.53;;;;;;;;;;5043650;28;20527;-79
2022/07/23 03:42:49;;;;;;;10.10;6.88;;;;;;;;;;5041604;28;20505;-81
2022/07/23 03:45:16;;;;;;;7.35;5.93;;;;;;;;;;5042691;28;20920;-78
2022/07/23 03:47:43;;;;;;;6.93;5.88;;;;;;;;;;5041190;28;20796;-83
2022/07/23 03:50:09;;;;;;;9.23;7.40;;;;;;;;;;5024685;28;20453;-80
2022/07/23 03:52:36;;;;;;;13.48;7.40;;;;;;;;;;5024227;28;20431;-79
2022/07/23 03:55:02;;;;;;;9.52;6.75;;;;;;;;;;5024688;28;20440;-79
2022/07/23 03:57:30;;;;;;;13.40;7.20;;;;;;;;;;5043607;28;20422;-78
2022/07/23 03:59:56;;;;;;;8.50;6.93;;;;;;;;;;5041781;28;20422;-79
2022/07/23 04:02:22;;;;;;;7.20;6.50;;;;;;;;;;5042028;28;20446;-79
2022/07/23 04:04:49;;;;;;;13.30;6.63;;;;;;;;;;5038984;28;20423;-79
2022/07/23 04:07:17;;;;;;;11.55;6.53;;;;;;;;;;5041537;28;20441;-79
2022/07/23 04:09:43;;;;;;;8.63;5.85;;;;;;;;;;5042659;28;20424;-79
2022/07/23 04:12:10;;;;;;;10.05;6.13;;;;;;;;;;5043113;28;20941;-80
2022/07/23 04:14:38;;;;;;;10.35;6.80;;;;;;;;;;5043294;28;20433;-78
2022/07/23 04:17:04;;;;;;;8.38;6.10;;;;;;;;;;5042333;28;20431;-78
2022/07/23 04:19:31;;;;;;;11.23;6.20;;;;;;;;;;5042944;28;20413;-79
2022/07/23 04:21:58;;;;;;;7.10;5.80;;;;;;;;;;5043172;28;20436;-80
2022/07/23 04:24:24;;;;;;;6.93;6.20;;;;;;;;;;5045229;28;20405;-80
2022/07/23 04:26:51;;;;;;;6.97;6.28;;;;;;;;;;5025926;28;20436;-79
2022/07/23 04:29:17;;;;;;;9.27;6.50;;;;;;;;;;5042858;28;20430;-78
2022/07/23 04:31:45;;;;;;;10.02;6.05;;;;;;;;;;5043057;28;20930;-79
2022/07/23 04:34:11;;;;;;;6.97;5.50;;;;;;;;;;5042036;28;20430;-79
2022/07/23 04:36:37;;;;;;;8.80;5.72;;;;;;;;;;5048296;28;20950;-79
2022/07/23 04:39:04;;;;;;;6.70;5.78;;;;;;;;;;5044128;28;20924;-78
2022/07/23 04:41:30;;;;;;;6.30;5.30;;;;;;;;;;5047000;28;20425;-79
2022/07/23 04:43:56;;;;;;;8.60;5.60;;;;;;;;;;5045162;28;20929;-78
2022/07/23 04:46:23;;;;;;;9.35;5.68;;;;;;;;;;5046163;28;20436;-80
2022/07/23 04:48:50;;;;;;;6.50;5.80;;;;;;;;;;5027616;28;20438;-82
2022/07/23 04:51:17;;;;;;;8.32;5.93;;;;;;;;;;5045742;28;20482;-81
2022/07/23 04:53:43;;;;;;;7.97;6.00;;;;;;;;;;5043021;28;20932;-81
2022/07/23 04:56:09;;;;;;;7.90;5.88;;;;;;;;;;5046161;28;20436;-79
2022/07/23 04:58:38;;;;;;;7.00;5.85;;;;;;;;;;5047024;28;20427;-79
2022/07/23 05:01:04;;;;;;;6.40;5.25;;;;;;;;;;5028966;28;20438;-81
2022/07/23 05:03:33;;;;;;;7.30;5.10;;;;;;;;;;5045482;28;20438;-83
2022/07/23 05:06:02;;;;;;;7.15;5.68;;;;;;;;;;5045376;28;20440;-79
2022/07/23 05:08:30;;;;;;;5.63;5.10;;;;;;;;;;5044673;28;20593;-78
2022/07/23 05:10:57;;;;;;;7.20;5.50;;;;;;;;;;5046302;28;20413;-79
2022/07/23 05:13:23;;;;;;;8.70;6.00;;;;;;;;;;5045920;28;20435;-78
2022/07/23 05:15:49;;;;;;;8.32;6.10;;;;;;;;;;5029965;28;20429;-80
2022/07/23 05:18:16;;;;;;;7.03;6.00;;;;;;;;;;5044053;28;20431;-81
2022/07/23 05:20:43;;;;;;;9.40;5.45;;;;;;;;;;5047563;28;20419;-82
2022/07/23 05:23:11;;;;;;;6.45;5.65;;;;;;;;;;5045270;28;20426;-79
2022/07/23 05:25:37;;;;;;;7.95;6.05;;;;;;;;;;5044737;28;20918;-81
2022/07/23 05:28:04;;;;;;;7.40;5.17;;;;;;;;;;5045843;28;22346;-79
2022/07/23 05:30:32;;;;;;;7.35;5.70;;;;;;;;;;5045320;28;20418;-79
2022/07/23 05:32:58;;;;;;;7.00;5.70;;;;;;;;;;5028211;28;20431;-79
2022/07/23 05:35:25;;;;;;;8.15;5.60;;;;;;;;;;5042179;28;20423;-81
2022/07/23 05:37:52;;;;;;;7.23;5.00;;;;;;;;;;5043822;28;20441;-80
2022/07/23 05:40:20;;;;;;;6.47;5.07;;;;;;;;;;5042618;28;20446;-79
2022/07/23 05:42:46;;;;;;;6.60;5.25;;;;;;;;;;5044544;28;20456;-82
2022/07/23 05:45:12;;;;;;;8.80;5.03;;;;;;;;;;5043253;28;20920;-80
2022/07/23 05:47:43;;;;;;;7.07;5.13;;;;;;;;;;5026925;28;20505;-79
2022/07/23 05:50:10;;;;;;;7.22;5.50;;;;;;;;;;5039830;28;20421;-79
2022/07/23 05:52:36;;;;;;;5.90;4.97;;;;;;;;;;5047540;28;20431;-78
2022/07/23 05:55:02;;;;;;;5.30;4.47;;;;;;;;;;5040016;28;20446;-79
2022/07/23 05:57:30;;;;;;;5.70;4.70;;;;;;;;;;5028126;28;20427;-80
2022/07/23 05:59:56;;;;;;;5.30;4.80;;;;;;;;;;5042115;28;20429;-80
2022/07/23 06:02:23;;;;;;;5.72;4.90;;;;;;;;;;5046360;28;20414;-82
2022/07/23 06:04:49;;;;;;;6.80;4.80;;;;;;;;;;5044645;28;20436;-82
2022/07/23 06:07:15;;;;;;;6.38;4.50;;;;;;;;;;5027830;28;20433;-79
2022/07/23 06:09:42;;;;;;;5.97;4.40;;;;;;;;;;5039860;28;20432;-79
2022/07/23 06:12:08;;;;;;;8.32;4.70;;;;;;;;;;5042703;28;20533;-79
2022/07/23 06:14:36;;;;;;;5.50;4.20;;;;;;;;;;5042888;28;20411;-79
2022/07/23 06:17:02;;;;;;;5.47;4.50;;;;;;;;;;5044013;28;20422;-81
2022/07/23 06:19:29;;;;;;;6.35;3.90;;;;;;;;;;5044888;28;20417;-80
2022/07/23 06:21:55;;;;;;;7.72;3.78;;;;;;;;;;5027753;28;20423;-81
2022/07/23 06:24:21;;;;;;;6.10;3.72;;;;;;;;;;5042136;28;20883;-79
2022/07/23 06:26:48;;;;;;;4.57;3.22;;;;;;;;;;5042345;28;20413;-82
2022/07/23 06:29:15;;;;;;;4.35;3.65;;;;;;;;;;5042492;28;20440;-80
2022/07/23 06:31:42;;;;;;;5.10;3.70;;;;;;;;;;5043646;28;20428;-81
2022/07/23 06:34:09;;;;;;;5.13;3.42;;;;;;;;;;5040417;28;20439;-80
2022/07/23 06:36:35;;;;;;;4.18;3.70;;;;;;;;;;5044604;28;20445;-79
2022/07/23 06:39:01;;;;;;;7.07;4.20;;;;;;;;;;5043177;28;20832;-78
2022/07/23 06:41:28;;;;;;;5.50;3.92;;;;;;;;;;5043872;28;20434;-80
2022/07/23 06:43:54;;;;;;;5.00;4.07;;;;;;;;;;5044577;28;20411;-80
2022/07/23 06:46:21;;;;;;;7.07;4.55;;;;;;;;;;5043908;28;20421;-79
2022/07/23 06:48:48;;;;;;;4.80;4.30;;;;;;;;;;5040740;28;20434;-79
2022/07/23 06:51:15;;;;;;;6.55;5.18;;;;;;;;;;5044317;28;20429;-80
2022/07/23 06:53:41;;;;;;;6.32;5.10;;;;;;;;;;5046019;28;20419;-79
2022/07/23 06:56:08;;;;;;;6.03;4.50;;;;;;;;;;5042276;28;20442;-81
2022/07/23 06:58:34;;;;;;;6.38;4.45;;;;;;;;;;5040622;28;20807;-82
2022/07/23 07:01:01;;;;;;;6.22;3.95;;;;;;;;;;5043846;28;20415;-79
2022/07/23 07:03:27;;;;;;;4.95;3.97;;;;;;;;;;5042583;28;20431;-78
2022/07/23 07:05:57;;;;;;;7.68;3.85;;;;;;;;;;5041476;28;20433;-79
2022/07/23 07:08:25;;;;;;;5.40;3.60;;;;;;;;;;5044660;28;20934;-79
2022/07/23 07:10:52;;;;;;;7.35;3.72;;;;;;;;;;5042482;28;20433;-78
2022/07/23 07:13:18;;;;;;;5.80;4.03;;;;;;;;;;5042349;28;20427;-83
2022/07/23 07:15:45;;;;;;;4.00;3.60;;;;;;;;;;5039763;28;20885;-79
2022/07/23 07:18:11;;;;;;;5.03;4.10;;;;;;;;;;5041198;28;20432;-79
2022/07/23 07:20:37;;;;;;;5.50;3.90;;;;;;;;;;5041856;28;20431;-79
2022/07/23 07:23:07;;;;;;;7.70;4.40;;;;;;;;;;5042128;28;20419;-79
2022/07/23 07:25:33;;;;;;;5.22;4.50;;;;;;;;;;5041374;28;20438;-79
2022/07/23 07:28:00;;;;;;;6.40;4.15;;;;;;;;;;5046712;28;20437;-79
2022/07/23 07:30:26;;;;;;;6.18;4.32;;;;;;;;;;5044111;28;20429;-79
2022/07/23 07:32:53;;;;;;;8.43;4.30;;;;;;;;;;5044211;28;20547;-79
2022/07/23 07:35:19;;;;;;;5.13;3.35;;;;;;;;;;5043658;28;20433;-79
2022/07/23 07:37:45;;;;;;;4.95;3.45;;;;;;;;;;5043091;28;20422;-79
2022/07/23 07:40:13;;;;;;;4.03;3.43;;;;;;;;;;5043411;28;20431;-79
2022/07/23 07:42:47;;;;;;;5.47;3.40;;;;;;;;;;5043208;28;20444;-79
2022/07/23 07:45:13;;;;;;;7.45;4.20;;;;;;;;;;5043149;28;20422;-80
2022/07/23 07:47:40;;;;;;;4.32;3.40;;;;;;;;;;5042735;28;20509;-79
2022/07/23 07:50:07;;;;;;;5.00;3.20;;;;;;;;;;5042966;28;20423;-79
2022/07/23 07:52:34;;;;;;;5.18;3.30;;;;;;;;;;5043312;28;20835;-80
2022/07/23 07:55:00;;;;;;;6.15;3.20;;;;;;;;;;5041644;28;20928;-79
2022/07/23 07:57:28;;;;;;;4.03;3.08;;;;;;;;;;5043022;28;20951;-78
2022/07/23 07:59:54;;;;;;;4.18;3.05;;;;;;;;;;5039878;28;20433;-79
2022/07/23 08:02:22;;;;;;;5.93;3.45;;;;;;;;;;5042660;28;20439;-79
2022/07/23 08:04:48;;;;;;;4.85;3.10;;;;;;;;;;5043045;28;20430;-79
2022/07/23 08:07:15;;;;;;;6.43;3.40;;;;;;;;;;5041827;28;20846;-79
2022/07/23 08:09:41;;;;;;;3.13;2.80;;;;;;;;;;5040472;28;20510;-79
2022/07/23 08:12:08;;;;;;;3.30;2.20;;;;;;;;;;5048909;28;20440;-80
2022/07/23 08:14:36;;;;;;;4.55;2.40;;;;;;;;;;5045048;28;20410;-79
2022/07/23 08:17:02;;;;;;;3.70;3.20;;;;;;;;;;5045157;28;20440;-79
2022/07/23 08:19:29;;;;;;;6.40;3.20;;;;;;;;;;5048391;28;20428;-79
2022/07/23 08:21:55;;;;;;;4.28;2.70;;;;;;;;;;5050999;28;20422;-81
2022/07/23 08:24:23;;;;;;;5.40;2.80;;;;;;;;;;5048135;28;20405;-79
2022/07/23 08:26:49;;;;;;;2.25;2.00;;;;;;;;;;5048578;28;20433;-80
2022/07/23 08:29:15;;;;;;;3.08;2.22;;;;;;;;;;5047155;28;20436;-78
2022/07/23 08:31:43;;;;;;;5.20;1.90;;;;;;;;;;5044504;28;20959;-78
2022/07/23 08:34:09;;;;;;;1.55;1.30;;;;;;;;;;5049098;28;20440;-79
2022/07/23 08:36:36;;;;;;;2.40;1.40;;;;;;;;;;5048714;28;20419;-79
2022/07/23 08:39:03;;;;;;;1.75;1.10;;;;;;;;;;5049461;28;20790;-80
2022/07/23 08:41:30;;;;;;;2.85;1.20;;;;;;;;;;5049948;28;20442;-79
2022/07/23 08:43:57;;;;;;;2.50;1.20;;;;;;;;;;5049629;28;20424;-79
2022/07/23 08:46:24;;;;;;;2.10;1.40;;;;;;;;;;5050259;28;20817;-79
2022/07/23 08:48:52;;;;;;;3.10;1.20;;;;;;;;;;5048333;28;20425;-79
2022/07/23 08:51:19;;;;;;;2.88;1.40;;;;;;;;;;5047857;28;20890;-79
2022/07/23 08:53:46;;;;;;;1.70;1.40;;;;;;;;;;5049211;28;20511;-80
2022/07/23 08:56:12;;;;;;;2.55;1.35;;;;;;;;;;5046582;28;20428;-82
2022/07/23 08:58:40;;;;;;;3.58;1.20;;;;;;;;;;5048317;28;20761;-80
2022/07/23 09:01:06;;;;;;;2.88;1.58;;;;;;;;;;5031140;28;20421;-79
2022/07/23 09:03:34;;;;;;;3.73;1.60;;;;;;;;;;5048168;28;20415;-80
2022/07/23 09:06:02;;;;;;;1.60;1.50;;;;;;;;;;5046645;28;20593;-79
2022/07/23 09:08:35;;;;;;;1.95;1.50;;;;;;;;;;5047302;28;20448;-79
2022/07/23 09:11:03;;;;;;;2.45;1.20;;;;;;;;;;5048468;28;20917;-79
2022/07/23 09:13:31;;;;;;;3.80;1.60;;;;;;;;;;5033905;28;20423;-79
2022/07/23 09:15:58;;;;;;;1.97;1.40;;;;;;;;;;5049625;28;20419;-79
2022/07/23 09:18:32;;;;;;;1.85;1.50;;;;;;;;;;5049275;28;20414;-82
2022/07/23 09:21:17;;;;;;;4.90;1.63;;;;;;;;;;5045975;28;20926;-78
2022/07/23 09:23:44;;;;;;;4.05;1.90;;;;;;;;;;5042019;28;20433;-80
2022/07/23 09:26:35;;;;;;;2.80;1.70;;;;;;;;;;5043212;28;20425;-79
2022/07/23 09:29:03;;;;;;;2.63;1.60;;;;;;;;;;5044538;28;20521;-79
2022/07/23 09:31:42;;;;;;;1.80;1.25;;;;;;;;;;5042855;28;20425;-77
2022/07/23 09:34:09;;;;;;;1.42;1.17;;;;;;;;;;5043457;28;20424;-79
2022/07/23 09:36:37;;;;;;;2.15;1.45;;;;;;;;;;5041598;28;21055;-78
2022/07/23 09:39:04;;;;;;;1.30;1.00;;;;;;;;;;5044326;28;20431;-78
2022/07/23 09:41:35;;;;;;;2.60;1.20;;;;;;;;;;5047701;28;20427;-79
2022/07/23 09:44:07;;;;;;;2.42;1.10;;;;;;;;;;5042986;28;20425;-80
2022/07/23 09:46:33;;;;;;;2.70;1.10;;;;;;;;;;5028718;28;20415;-79
2022/07/23 09:49:10;;;;;;;2.50;1.20;;;;;;;;;;5042052;28;20936;-78
2022/07/23 09:51:43;;;;;;;1.45;0.90;;;;;;;;;;5041337;28;20461;-79
2022/07/23 09:54:21;;;;;;;1.90;1.27;;;;;;;;;;5041646;28;20436;-78
2022/07/23 09:56:48;;;;;;;2.30;1.20;;;;;;;;;;5039943;28;20433;-80
2022/07/23 09:59:17;;;;;;;2.30;1.63;;;;;;;;;;5039734;28;20795;-79
2022/07/23 10:01:44;;;;;;;1.90;1.40;;;;;;;;;;5045053;28;20535;-78
2022/07/23 10:04:12;;;;;;;1.90;1.23;;;;;;;;;;5041387;28;20487;-80
2022/07/23 10:06:40;;;;;;;2.78;1.23;;;;;;;;;;5023921;28;20425;-78
2022/07/23 10:09:09;;;;;;;2.08;1.02;;;;;;;;;;5042312;28;20432;-79
2022/07/23 10:11:36;;;;;;;2.60;1.30;;;;;;;;;;4957121;28;20940;-82
2022/07/23 10:14:05;;;;;;;2.07;1.20;;;;;;;;;;5041327;28;20520;-79
2022/07/23 10:16:32;;;;;;;2.00;1.20;;;;;;;;;;5043414;28;20467;-81
2022/07/23 10:18:59;;;;;;;2.70;1.38;;;;;;;;;;5043421;28;20438;-78
2022/07/23 10:21:28;;;;;;;4.05;1.67;;;;;;;;;;5041535;28;20440;-78
2022/07/23 10:24:02;;;;;;;1.70;1.60;;;;;;;;;;5044400;28;20421;-78
2022/07/23 10:26:35;;;;;;;2.10;1.40;;;;;;;;;;5043234;28;20441;-79
2022/07/23 10:29:08;;;;;;;3.10;1.60;;;;;;;;;;5042698;28;20459;-78
2022/07/23 10:31:39;;;;;;;1.40;1.20;;;;;;;;;;5045529;28;20429;-79
2022/07/23 10:34:12;;;;;;;1.40;1.10;;;;;;;;;;5039033;28;20435;-79
2022/07/23 10:36:41;;;;;;;2.80;1.20;;;;;;;;;;5041436;28;20435;-80
2022/07/23 10:39:12;;;;;;;1.33;1.15;;;;;;;;;;5039342;28;20422;-78
2022/07/23 10:41:40;;;;;;;1.20;1.10;;;;;;;;;;5023798;28;20429;-79
2022/07/23 10:44:07;;;;;;;3.20;1.20;;;;;;;;;;5040546;28;20429;-79
2022/07/23 10:46:39;;;;;;;55.08;50.15;;;;;;;;;;5041969;28;20439;-79
2022/07/23 10:49:21;;;;;;;68.75;62.05;;;;;;;;;;5043054;28;20425;-79
2022/07/23 10:52:03;;;;;;;43.08;36.20;;;;;;;;;;5044284;28;20431;-78
2022/07/23 10:54:29;;;;;;;2.22;1.80;;;;;;;;;;5043320;28;20421;-79
2022/07/23 10:57:11;;;;;;;2.03;1.60;;;;;;;;;;5043396;28;20914;-80
2022/07/23 10:59:56;;;;;;;3.90;1.60;;;;;;;;;;5043409;28;20923;-84
2022/07/23 11:02:24;;;;;;;3.10;1.30;;;;;;;;;;5042934;28;20907;-82
2022/07/23 11:04:51;;;;;;;1.70;1.10;;;;;;;;;;5045749;28;20431;-80
2022/07/23 11:07:17;;;;;;;2.15;1.00;;;;;;;;;;5043389;28;20461;-79
2022/07/23 11:09:45;;;;;;;2.90;1.30;;;;;;;;;;5043507;28;20429;-80
2022/07/23 11:12:30;;;;;;;1.50;1.10;;;;;;;;;;5041234;28;21015;-79
2022/07/23 11:15:02;;;;;;;3.00;1.20;;;;;;;;;;5044255;28;20983;-78
2022/07/23 11:17:28;;;;;;;2.72;1.40;;;;;;;;;;5043612;28;20417;-78
2022/07/23 11:20:15;;;;;;;1.50;1.20;;;;;;;;;;5041158;28;20437;-79
2022/07/23 11:22:47;;;;;;;1.60;1.00;;;;;;;;;;5040246;28;20436;-80
2022/07/23 11:25:15;;;;;;;2.30;1.40;;;;;;;;;;5041770;28;20985;-78
2022/07/23 11:27:42;;;;;;;1.40;1.00;;;;;;;;;;5038670;28;20430;-80
2022/07/23 11:30:10;;;;;;;1.85;1.20;;;;;;;;;;5040931;28;20457;-79
2022/07/23 11:32:39;;;;;;;2.10;1.20;;;;;;;;;;5041398;28;21385;-79
2022/07/23 11:35:22;;;;;;;3.90;1.20;;;;;;;;;;5038776;28;20832;-78
2022/07/23 11:37:53;;;;;;;3.53;1.40;;;;;;;;;;5039779;28;20437;-80
2022/07/23 11:40:20;;;;;;;1.90;1.10;;;;;;;;;;5044948;28;20430;-78
2022/07/23 11:42:54;;;;;;;4.70;1.10;;;;;;;;;;5046115;28;20431;-78
2022/07/23 11:45:23;;;;;;;1.42;0.95;;;;;;;;;;5038145;28;20441;-79
2022/07/23 11:47:50;;;;;;;2.10;1.00;;;;;;;;;;5043097;28;20433;-79
2022/07/23 11:50:16;;;;;;;2.10;1.10;;;;;;;;;;5044186;28;20460;-79
2022/07/23 11:52:44;;;;;;;1.63;0.90;;;;;;;;;;5043451;28;20957;-83
2022/07/23 11:55:11;;;;;;;1.40;0.90;;;;;;;;;;5044696;28;20433;-81
2022/07/23 11:57:40;;;;;;;1.80;0.90;;;;;;;;;;5045216;28;20414;-79
2022/07/23 12:00:08;;;;;;;1.65;0.90;;;;;;;;;;5043157;28;20426;-79
2022/07/23 12:02:38;;;;;;;1.45;1.20;;;;;;;;;;5044627;28;20420;-79
2022/07/23 12:05:06;;;;;;;1.05;0.90;;;;;;;;;;5043220;28;20441;-80
2022/07/23 12:07:33;;;;;;;2.20;0.90;;;;;;;;;;5044538;28;20405;-79
2022/07/23 12:10:02;;;;;;;1.77;1.00;;;;;;;;;;5043020;28;20429;-79
2022/07/23 12:12:35;;;;;;;1.47;0.90;;;;;;;;;;5025813;28;21034;-81
2022/07/23 12:15:01;;;;;;;1.20;1.10;;;;;;;;;;5043066;28;20999;-78
2022/07/23 12:17:30;;;;;;;1.55;0.90;;;;;;;;;;5040589;28;20432;-79
2022/07/23 12:19:59;;;;;;;2.67;1.30;;;;;;;;;;5040997;28;20833;-80
2022/07/23 12:22:27;;;;;;;1.80;1.10;;;;;;;;;;5041109;28;20426;-79
2022/07/23 12:24:56;;;;;;;2.10;1.00;;;;;;;;;;5041279;28;20441;-80
2022/07/23 12:27:22;;;;;;;1.98;0.90;;;;;;;;;;5038040;28;20436;-82
2022/07/23 12:29:51;;;;;;;2.65;1.05;;;;;;;;;;5041951;28;20929;-79
2022/07/23 12:32:18;;;;;;;1.13;1.02;;;;;;;;;;5033376;28;20535;-80
2022/07/23 12:34:44;;;;;;;1.10;0.90;;;;;;;;;;5044529;28;20526;-79
2022/07/23 12:37:26;;;;;;;3.00;1.30;;;;;;;;;;5042222;28;20439;-79
2022/07/23 12:39:54;;;;;;;2.83;1.23;;;;;;;;;;5045896;28;20944;-81
2022/07/23 12:42:21;;;;;;;3.70;1.17;;;;;;;;;;5046964;28;20409;-78
2022/07/23 12:45:04;;;;;;;1.87;1.30;;;;;;;;;;5045514;28;20431;-79
2022/07/23 12:47:30;;;;;;;2.75;1.10;;;;;;;;;;5025417;28;20412;-80
2022/07/23 12:49:59;;;;;;;1.17;1.08;;;;;;;;;;5044034;28;20464;-79
2022/07/23 12:52:26;;;;;;;1.33;0.80;;;;;;;;;;5044255;28;20421;-81
2022/07/23 12:54:53;;;;;;;1.17;0.90;;;;;;;;;;5043478;28;20434;-80
2022/07/23 12:57:20;;;;;;;1.58;1.00;;;;;;;;;;5046170;28;20413;-81
2022/07/23 12:59:46;;;;;;;1.47;1.10;;;;;;;;;;5047608;28;20421;-80
2022/07/23 13:02:14;;;;;;;2.20;1.00;;;;;;;;;;5038941;28;20428;-80
2022/07/23 13:04:40;;;;;;;1.30;0.80;;;;;;;;;;5044280;28;20438;-80
2022/07/23 13:07:07;;;;;;;1.13;0.90;;;;;;;;;;5047267;28;20424;-80
2022/07/23 13:09:34;;;;;;;1.33;0.82;;;;;;;;;;5044923;28;20439;-79
2022/07/23 13:12:04;;;;;;;2.00;1.00;;;;;;;;;;5046050;28;20440;-79
2022/07/23 13:14:31;;;;;;;1.93;1.10;;;;;;;;;;5046494;28;20438;-79
2022/07/23 13:16:57;;;;;;;2.00;1.10;;;;;;;;;;5045012;28;20550;-80
2022/07/23 13:19:24;;;;;;;1.50;0.88;;;;;;;;;;5042602;28;20445;-80
2022/07/23 13:21:51;;;;;;;1.80;0.80;;;;;;;;;;5045026;28;20908;-78
2022/07/23 13:24:19;;;;;;;2.22;1.20;;;;;;;;;;5049391;28;20455;-79
2022/07/23 13:26:49;;;;;;;3.30;1.00;;;;;;;;;;5047769;28;20930;-79
2022/07/23 13:29:18;;;;;;;4.13;1.30;;;;;;;;;;5049938;28;20481;-80
2022/07/23 13:31:44;;;;;;;1.90;1.00;;;;;;;;;;5046924;28;20438;-79
2022/07/23 13:34:10;;;;;;;1.50;1.20;;;;;;;;;;5047556;28;20438;-80
2022/07/23 13:36:38;;;;;;;2.42;1.23;;;;;;;;;;5046193;28;20423;-81
2022/07/23 13:39:04;;;;;;;1.77;1.10;;;;;;;;;;5036355;28;20990;-78
2022/07/23 13:41:31;;;;;;;3.90;1.30;;;;;;;;;;5046084;28;20428;-80
2022/07/23 13:43:58;;;;;;;1.70;1.10;;;;;;;;;;5048821;28;20425;-79
2022/07/23 13:46:25;;;;;;;1.75;1.30;;;;;;;;;;5047726;28;20454;-80
2022/07/23 13:48:52;;;;;;;2.25;1.20;;;;;;;;;;5045662;28;20438;-79
2022/07/23 13:51:20;;;;;;;1.63;1.20;;;;;;;;;;5047298;28;20837;-80
2022/07/23 13:53:47;;;;;;;1.20;1.10;;;;;;;;;;5046562;28;20427;-79
2022/07/23 13:56:15;;;;;;;2.45;1.05;;;;;;;;;;5047954;28;20420;-79
2022/07/23 13:58:42;;;;;;;1.55;1.13;;;;;;;;;;5046801;28;20455;-80
2022/07/23 14:01:08;;;;;;;1.10;0.90;;;;;;;;;;5046207;28;20429;-80
2022/07/23 14:03:37;;;;;;;2.80;1.20;;;;;;;;;;5043576;28;20425;-79
2022/07/23 14:06:05;;;;;;;2.00;1.30;;;;;;;;;;5043375;28;20433;-81
2022/07/23 14:08:32;;;;;;;3.00;1.60;;;;;;;;;;5041384;28;20429;-79
2022/07/23 14:10:58;;;;;;;1.60;1.00;;;;;;;;;;5040174;28;20523;-80
2022/07/23 14:13:25;;;;;;;2.85;0.90;;;;;;;;;;5049332;28;20517;-80
2022/07/23 14:15:51;;;;;;;1.80;1.10;;;;;;;;;;5030798;28;20489;-79
2022/07/23 14:18:19;;;;;;;3.00;1.20;;;;;;;;;;5046561;28;20715;-79
2022/07/23 14:20:49;;;;;;;1.33;1.10;;;;;;;;;;5046566;28;20461;-79
2022/07/23 14:23:15;;;;;;;2.60;1.05;;;;;;;;;;5029531;28;20444;-81
2022/07/23 14:25:42;;;;;;;1.65;1.27;;;;;;;;;;5047352;28;20433;-80
2022/07/23 14:28:08;;;;;;;1.90;1.20;;;;;;;;;;5045347;28;20425;-79
2022/07/23 14:30:35;;;;;;;2.45;0.90;;;;;;;;;;5047511;28;20431;-80
2022/07/23 14:33:01;;;;;;;2.47;1.00;;;;;;;;;;5046644;28;20433;-79
2022/07/23 14:35:28;;;;;;;2.55;1.13;;;;;;;;;;5044055;28;20438;-79
2022/07/23 14:37:57;;;;;;;2.80;1.20;;;;;;;;;;5043898;28;20436;-81
2022/07/23 14:40:24;;;;;;;2.70;1.10;;;;;;;;;;5044034;28;20436;-79
2022/07/23 14:42:50;;;;;;;2.95;1.20;;;;;;;;;;5044189;28;20418;-80
2022/07/23 14:45:17;;;;;;;2.75;1.20;;;;;;;;;;5042891;28;20437;-82